sensor_id;sensor_type;location;lat;lon;timestamp;temperature;humidity
10788;DHT22;5446;50.826;4.380;2022-08-04T00:02:05;24.80;99.90
10788;DHT22;5446;50.826;4.380;2022-08-04T00:04:48;24.80;99.90
10788;DHT22;5446;50.826;4.380;2022-08-04T00:10:03;24.80;99.90
10788;DHT22;5446;50.826;4.380;2022-08-04T00:12:36;24.80;99.90
10788;DHT22;5446;50.826;4.380;2022-08-04T00:15:04;24.70;99.90
10788;DHT22;5446;50.826;4.380;2022-08-04T00:17:43;24.70;99.90
10788;DHT22;5446;50.826;4.380;2022-08-04T00:20:11;24.70;99.90
10788;DHT22;5446;50.826;4.380;2022-08-04T00:22:44;24.70;99.90
10788;DHT22;5446;50.826;4.380;2022-08-04T00:25:10;24.70;99.90
10788;DHT22;5446;50.826;4.380;2022-08-04T00:27:36;24.70;99.90
10788;DHT22;5446;50.826;4.380;2022-08-04T00:30:03;24.60;99.90
10788;DHT22;5446;50.826;4.380;2022-08-04T00:32:29;24.60;99.90
10788;DHT22;5446;50.826;4.380;2022-08-04T00:34:57;24.50;99.90
10788;DHT22;5446;50.826;4.380;2022-08-04T00:37:24;24.50;99.90
10788;DHT22;5446;50.826;4.380;2022-08-04T00:39:54;24.50;99.90
10788;DHT22;5446;50.826;4.380;2022-08-04T00:45:21;24.40;99.90
10788;DHT22;5446;50.826;4.380;2022-08-04T00:56:37;24.20;99.90
10788;DHT22;5446;50.826;4.380;2022-08-04T00:59:16;24.20;99.90
10788;DHT22;5446;50.826;4.380;2022-08-04T01:05:02;24.10;99.90
10788;DHT22;5446;50.826;4.380;2022-08-04T01:29:13;24.00;99.90
10788;DHT22;5446;50.826;4.380;2022-08-04T01:34:51;24.00;99.90
10788;DHT22;5446;50.826;4.380;2022-08-04T01:37:39;24.00;99.90
10788;DHT22;5446;50.826;4.380;2022-08-04T01:40:12;24.00;99.90
10788;DHT22;5446;50.826;4.380;2022-08-04T01:42:40;23.90;99.90
10788;DHT22;5446;50.826;4.380;2022-08-04T01:45:11;23.80;99.90
10788;DHT22;5446;50.826;4.380;2022-08-04T01:47:41;23.80;99.90
10788;DHT22;5446;50.826;4.380;2022-08-04T01:50:11;23.70;99.90
10788;DHT22;5446;50.826;4.380;2022-08-04T01:52:40;23.60;99.90
10788;DHT22;5446;50.826;4.380;2022-08-04T01:55:08;23.60;99.90
10788;DHT22;5446;50.826;4.380;2022-08-04T01:57:45;23.60;99.90
10788;DHT22;5446;50.826;4.380;2022-08-04T02:00:14;23.50;99.90
10788;DHT22;5446;50.826;4.380;2022-08-04T02:02:40;23.50;99.90
10788;DHT22;5446;50.826;4.380;2022-08-04T02:05:09;23.50;99.90
10788;DHT22;5446;50.826;4.380;2022-08-04T02:13:18;23.40;99.90
10788;DHT22;5446;50.826;4.380;2022-08-04T02:16:45;23.40;99.90
10788;DHT22;5446;50.826;4.380;2022-08-04T02:21:47;23.40;99.90
10788;DHT22;5446;50.826;4.380;2022-08-04T02:24:17;23.40;99.90
10788;DHT22;5446;50.826;4.380;2022-08-04T02:26:49;23.30;99.90
10788;DHT22;5446;50.826;4.380;2022-08-04T02:32:06;23.30;99.90
10788;DHT22;5446;50.826;4.380;2022-08-04T02:34:46;23.30;99.90
10788;DHT22;5446;50.826;4.380;2022-08-04T02:37:16;23.20;99.90
10788;DHT22;5446;50.826;4.380;2022-08-04T02:39:43;23.30;99.90
10788;DHT22;5446;50.826;4.380;2022-08-04T02:42:11;23.30;99.90
10788;DHT22;5446;50.826;4.380;2022-08-04T02:44:38;23.20;99.90
10788;DHT22;5446;50.826;4.380;2022-08-04T02:47:05;23.20;99.90
10788;DHT22;5446;50.826;4.380;2022-08-04T02:49:36;23.20;99.90
10788;DHT22;5446;50.826;4.380;2022-08-04T02:52:02;23.20;99.90
10788;DHT22;5446;50.826;4.380;2022-08-04T02:54:33;23.10;99.90
10788;DHT22;5446;50.826;4.380;2022-08-04T02:57:01;23.10;99.90
10788;DHT22;5446;50.826;4.380;2022-08-04T02:59:29;23.10;99.90
10788;DHT22;5446;50.826;4.380;2022-08-04T03:02:02;23.10;99.90
10788;DHT22;5446;50.826;4.380;2022-08-04T03:13:03;22.80;99.90
10788;DHT22;5446;50.826;4.380;2022-08-04T03:23:59;22.50;99.90
10788;DHT22;5446;50.826;4.380;2022-08-04T04:04:07;22.40;99.90
10788;DHT22;5446;50.826;4.380;2022-08-04T04:12:30;22.40;99.90
10788;DHT22;5446;50.826;4.380;2022-08-04T04:29:51;22.30;99.90
10788;DHT22;5446;50.826;4.380;2022-08-04T04:32:22;22.30;99.90
10788;DHT22;5446;50.826;4.380;2022-08-04T04:52:49;22.00;99.90
10788;DHT22;5446;50.826;4.380;2022-08-04T04:55:21;21.90;99.90
10788;DHT22;5446;50.826;4.380;2022-08-04T04:57:51;22.00;99.90
10788;DHT22;5446;50.826;4.380;2022-08-04T05:00:18;21.90;99.90
10788;DHT22;5446;50.826;4.380;2022-08-04T05:02:49;21.80;99.90
10788;DHT22;5446;50.826;4.380;2022-08-04T05:13:51;21.80;99.90
10788;DHT22;5446;50.826;4.380;2022-08-04T05:22:05;21.60;99.90
10788;DHT22;5446;50.826;4.380;2022-08-04T05:24:36;21.70;99.90
10788;DHT22;5446;50.826;4.380;2022-08-04T05:29:53;21.80;99.90
10788;DHT22;5446;50.826;4.380;2022-08-04T05:32:23;21.80;99.90
10788;DHT22;5446;50.826;4.380;2022-08-04T05:35:23;21.90;99.90
10788;DHT22;5446;50.826;4.380;2022-08-04T05:37:52;21.90;99.90
10788;DHT22;5446;50.826;4.380;2022-08-04T05:40:19;21.90;99.90
10788;DHT22;5446;50.826;4.380;2022-08-04T05:42:46;22.00;99.90
10788;DHT22;5446;50.826;4.380;2022-08-04T05:45:12;21.90;99.90
10788;DHT22;5446;50.826;4.380;2022-08-04T05:47:38;21.90;99.90
10788;DHT22;5446;50.826;4.380;2022-08-04T05:50:05;21.90;99.90
10788;DHT22;5446;50.826;4.380;2022-08-04T05:52:34;21.90;99.90
10788;DHT22;5446;50.826;4.380;2022-08-04T05:55:01;22.00;99.90
10788;DHT22;5446;50.826;4.380;2022-08-04T05:57:28;22.20;99.90
10788;DHT22;5446;50.826;4.380;2022-08-04T05:59:56;22.20;99.90
10788;DHT22;5446;50.826;4.380;2022-08-04T06:02:23;22.10;99.90
10788;DHT22;5446;50.826;4.380;2022-08-04T06:04:50;22.20;99.90
10788;DHT22;5446;50.826;4.380;2022-08-04T06:07:17;22.20;99.90
10788;DHT22;5446;50.826;4.380;2022-08-04T06:09:43;22.20;99.90
10788;DHT22;5446;50.826;4.380;2022-08-04T06:12:25;22.20;99.90
10788;DHT22;5446;50.826;4.380;2022-08-04T06:14:54;22.20;99.90
10788;DHT22;5446;50.826;4.380;2022-08-04T06:17:25;22.20;99.90
10788;DHT22;5446;50.826;4.380;2022-08-04T06:19:53;22.30;99.90
10788;DHT22;5446;50.826;4.380;2022-08-04T06:22:22;22.30;99.90
10788;DHT22;5446;50.826;4.380;2022-08-04T06:24:49;22.40;99.90
10788;DHT22;5446;50.826;4.380;2022-08-04T06:27:17;22.40;99.90
10788;DHT22;5446;50.826;4.380;2022-08-04T06:29:43;22.40;99.90
10788;DHT22;5446;50.826;4.380;2022-08-04T06:32:12;22.50;99.90
10788;DHT22;5446;50.826;4.380;2022-08-04T06:35:01;22.60;99.90
10788;DHT22;5446;50.826;4.380;2022-08-04T06:37:28;22.60;99.90
10788;DHT22;5446;50.826;4.380;2022-08-04T06:39:54;22.60;99.90
10788;DHT22;5446;50.826;4.380;2022-08-04T06:42:23;22.60;99.90
10788;DHT22;5446;50.826;4.380;2022-08-04T06:44:53;22.70;99.90
10788;DHT22;5446;50.826;4.380;2022-08-04T06:47:20;22.70;99.90
10788;DHT22;5446;50.826;4.380;2022-08-04T06:49:49;22.70;99.90
10788;DHT22;5446;50.826;4.380;2022-08-04T06:52:16;22.70;99.90
10788;DHT22;5446;50.826;4.380;2022-08-04T06:54:47;22.80;99.90
10788;DHT22;5446;50.826;4.380;2022-08-04T06:57:15;22.90;99.90
10788;DHT22;5446;50.826;4.380;2022-08-04T06:59:44;22.80;99.90
10788;DHT22;5446;50.826;4.380;2022-08-04T07:02:14;22.90;99.90
10788;DHT22;5446;50.826;4.380;2022-08-04T07:04:44;23.10;99.90
10788;DHT22;5446;50.826;4.380;2022-08-04T07:07:11;22.90;99.90
10788;DHT22;5446;50.826;4.380;2022-08-04T07:09:38;23.00;99.90
10788;DHT22;5446;50.826;4.380;2022-08-04T07:12:05;23.10;99.90
10788;DHT22;5446;50.826;4.380;2022-08-04T07:14:32;23.40;99.90
10788;DHT22;5446;50.826;4.380;2022-08-04T07:17:05;23.50;99.90
10788;DHT22;5446;50.826;4.380;2022-08-04T07:19:33;23.60;99.90
10788;DHT22;5446;50.826;4.380;2022-08-04T07:21:59;23.60;99.90
10788;DHT22;5446;50.826;4.380;2022-08-04T07:24:36;23.60;99.90
10788;DHT22;5446;50.826;4.380;2022-08-04T07:27:04;23.80;99.90
10788;DHT22;5446;50.826;4.380;2022-08-04T07:29:30;23.80;99.90
10788;DHT22;5446;50.826;4.380;2022-08-04T07:31:57;23.90;99.90
10788;DHT22;5446;50.826;4.380;2022-08-04T07:34:25;23.90;99.90
10788;DHT22;5446;50.826;4.380;2022-08-04T07:36:52;24.00;99.90
10788;DHT22;5446;50.826;4.380;2022-08-04T07:39:19;24.10;99.90
10788;DHT22;5446;50.826;4.380;2022-08-04T07:41:46;24.10;99.90
10788;DHT22;5446;50.826;4.380;2022-08-04T07:44:13;24.10;99.90
10788;DHT22;5446;50.826;4.380;2022-08-04T07:46:39;24.10;99.90
10788;DHT22;5446;50.826;4.380;2022-08-04T07:49:06;24.10;99.90
10788;DHT22;5446;50.826;4.380;2022-08-04T07:51:33;24.20;99.90
10788;DHT22;5446;50.826;4.380;2022-08-04T07:54:00;24.10;99.90
10788;DHT22;5446;50.826;4.380;2022-08-04T07:56:28;24.10;99.90
10788;DHT22;5446;50.826;4.380;2022-08-04T07:58:54;24.20;99.90
10788;DHT22;5446;50.826;4.380;2022-08-04T08:01:21;24.00;99.90
10788;DHT22;5446;50.826;4.380;2022-08-04T08:03:49;24.20;99.90
10788;DHT22;5446;50.826;4.380;2022-08-04T08:06:15;24.00;99.90
10788;DHT22;5446;50.826;4.380;2022-08-04T08:08:40;23.90;99.90
10788;DHT22;5446;50.826;4.380;2022-08-04T08:11:07;23.90;99.90
10788;DHT22;5446;50.826;4.380;2022-08-04T08:13:34;23.90;99.90
10788;DHT22;5446;50.826;4.380;2022-08-04T08:16:01;23.90;99.90
10788;DHT22;5446;50.826;4.380;2022-08-04T08:18:29;23.70;99.90
10788;DHT22;5446;50.826;4.380;2022-08-04T08:20:55;23.50;99.90
10788;DHT22;5446;50.826;4.380;2022-08-04T08:23:21;23.40;99.90
10788;DHT22;5446;50.826;4.380;2022-08-04T08:25:47;23.40;99.90
10788;DHT22;5446;50.826;4.380;2022-08-04T08:28:13;23.40;99.90
10788;DHT22;5446;50.826;4.380;2022-08-04T08:30:40;23.20;99.90
10788;DHT22;5446;50.826;4.380;2022-08-04T08:33:14;23.10;99.90
10788;DHT22;5446;50.826;4.380;2022-08-04T08:35:46;22.90;99.90
10788;DHT22;5446;50.826;4.380;2022-08-04T08:38:14;23.10;99.90
10788;DHT22;5446;50.826;4.380;2022-08-04T08:44:08;23.20;99.90
10788;DHT22;5446;50.826;4.380;2022-08-04T08:47:08;23.10;99.90
10788;DHT22;5446;50.826;4.380;2022-08-04T09:12:58;23.00;99.90
10788;DHT22;5446;50.826;4.380;2022-08-04T09:15:07;23.00;99.90
10788;DHT22;5446;50.826;4.380;2022-08-04T09:17:50;23.00;99.90
10788;DHT22;5446;50.826;4.380;2022-08-04T09:20:43;22.90;99.90
10788;DHT22;5446;50.826;4.380;2022-08-04T09:29:19;22.90;99.90
10788;DHT22;5446;50.826;4.380;2022-08-04T09:37:33;22.90;99.90
10788;DHT22;5446;50.826;4.380;2022-08-04T09:46:23;23.10;99.90
10788;DHT22;5446;50.826;4.380;2022-08-04T09:48:57;23.30;99.90
10788;DHT22;5446;50.826;4.380;2022-08-04T09:51:44;23.10;99.90
10788;DHT22;5446;50.826;4.380;2022-08-04T09:54:51;22.90;99.90
10788;DHT22;5446;50.826;4.380;2022-08-04T10:00:06;22.90;99.90
10788;DHT22;5446;50.826;4.380;2022-08-04T10:02:41;23.10;99.90
10788;DHT22;5446;50.826;4.380;2022-08-04T10:05:13;23.20;99.90
10788;DHT22;5446;50.826;4.380;2022-08-04T10:08:17;23.20;99.90
10788;DHT22;5446;50.826;4.380;2022-08-04T10:10:58;23.40;99.90
10788;DHT22;5446;50.826;4.380;2022-08-04T10:19:24;23.70;99.90
10788;DHT22;5446;50.826;4.380;2022-08-04T10:27:54;23.60;99.90
10788;DHT22;5446;50.826;4.380;2022-08-04T10:30:22;23.60;99.90
10788;DHT22;5446;50.826;4.380;2022-08-04T10:35:24;23.80;99.90
10788;DHT22;5446;50.826;4.380;2022-08-04T10:43:43;24.20;99.90
10788;DHT22;5446;50.826;4.380;2022-08-04T10:51:54;24.10;99.90
10788;DHT22;5446;50.826;4.380;2022-08-04T10:57:47;24.50;99.90
10788;DHT22;5446;50.826;4.380;2022-08-04T11:00:23;24.90;99.90
10788;DHT22;5446;50.826;4.380;2022-08-04T11:03:12;25.00;99.90
10788;DHT22;5446;50.826;4.380;2022-08-04T11:05:55;24.80;99.90
10788;DHT22;5446;50.826;4.380;2022-08-04T11:08:30;25.00;99.90
10788;DHT22;5446;50.826;4.380;2022-08-04T11:14:02;25.00;99.90
10788;DHT22;5446;50.826;4.380;2022-08-04T11:16:41;25.10;99.90
10788;DHT22;5446;50.826;4.380;2022-08-04T11:22:03;25.30;99.90
10788;DHT22;5446;50.826;4.380;2022-08-04T11:25:31;25.50;99.90
10788;DHT22;5446;50.826;4.380;2022-08-04T11:27:42;25.50;99.90
10788;DHT22;5446;50.826;4.380;2022-08-04T11:30:11;25.40;99.90
10788;DHT22;5446;50.826;4.380;2022-08-04T11:35:15;25.20;99.90
10788;DHT22;5446;50.826;4.380;2022-08-04T11:37:49;25.20;99.90
10788;DHT22;5446;50.826;4.380;2022-08-04T11:40:23;25.20;99.90
10788;DHT22;5446;50.826;4.380;2022-08-04T11:43:05;25.40;99.90
10788;DHT22;5446;50.826;4.380;2022-08-04T11:46:13;25.30;99.90
10788;DHT22;5446;50.826;4.380;2022-08-04T11:48:46;25.30;99.90
10788;DHT22;5446;50.826;4.380;2022-08-04T11:51:16;25.60;99.90
10788;DHT22;5446;50.826;4.380;2022-08-04T11:53:43;25.50;99.90
10788;DHT22;5446;50.826;4.380;2022-08-04T11:56:12;25.80;99.90
10788;DHT22;5446;50.826;4.380;2022-08-04T11:58:40;25.60;99.90
10788;DHT22;5446;50.826;4.380;2022-08-04T12:01:37;25.60;99.90
10788;DHT22;5446;50.826;4.380;2022-08-04T12:06:55;26.00;99.90
10788;DHT22;5446;50.826;4.380;2022-08-04T12:15:19;26.00;99.90
10788;DHT22;5446;50.826;4.380;2022-08-04T12:21:10;25.90;99.90
10788;DHT22;5446;50.826;4.380;2022-08-04T12:23:42;25.90;99.90
10788;DHT22;5446;50.826;4.380;2022-08-04T12:26:14;25.60;99.90
10788;DHT22;5446;50.826;4.380;2022-08-04T12:28:44;25.60;99.90
10788;DHT22;5446;50.826;4.380;2022-08-04T12:31:26;25.60;99.90
10788;DHT22;5446;50.826;4.380;2022-08-04T12:37:25;25.70;99.90
10788;DHT22;5446;50.826;4.380;2022-08-04T12:39:53;25.80;99.90
10788;DHT22;5446;50.826;4.380;2022-08-04T12:42:40;26.00;99.90
10788;DHT22;5446;50.826;4.380;2022-08-04T12:45:09;26.10;99.90
10788;DHT22;5446;50.826;4.380;2022-08-04T12:47:36;26.10;99.90
10788;DHT22;5446;50.826;4.380;2022-08-04T12:50:05;26.10;99.90
10788;DHT22;5446;50.826;4.380;2022-08-04T12:53:01;26.20;99.90
10788;DHT22;5446;50.826;4.380;2022-08-04T12:55:35;26.20;99.90
10788;DHT22;5446;50.826;4.380;2022-08-04T12:58:12;26.50;99.90
10788;DHT22;5446;50.826;4.380;2022-08-04T13:00:39;26.60;99.90
10788;DHT22;5446;50.826;4.380;2022-08-04T13:03:10;26.80;99.90
10788;DHT22;5446;50.826;4.380;2022-08-04T13:05:38;26.80;99.90
10788;DHT22;5446;50.826;4.380;2022-08-04T13:08:05;26.80;99.90
10788;DHT22;5446;50.826;4.380;2022-08-04T13:10:36;27.10;99.90
10788;DHT22;5446;50.826;4.380;2022-08-04T13:13:03;27.20;99.90
10788;DHT22;5446;50.826;4.380;2022-08-04T13:15:29;27.10;99.90
10788;DHT22;5446;50.826;4.380;2022-08-04T13:18:10;27.30;99.90
10788;DHT22;5446;50.826;4.380;2022-08-04T13:20:37;27.30;99.90
10788;DHT22;5446;50.826;4.380;2022-08-04T13:23:09;27.40;99.90
10788;DHT22;5446;50.826;4.380;2022-08-04T13:25:47;27.60;99.90
10788;DHT22;5446;50.826;4.380;2022-08-04T13:28:25;27.80;99.90
10788;DHT22;5446;50.826;4.380;2022-08-04T13:30:57;28.00;99.90
10788;DHT22;5446;50.826;4.380;2022-08-04T13:33:32;28.10;99.90
10788;DHT22;5446;50.826;4.380;2022-08-04T13:35:58;28.00;99.90
10788;DHT22;5446;50.826;4.380;2022-08-04T13:38:26;28.00;99.90
10788;DHT22;5446;50.826;4.380;2022-08-04T13:41:02;28.10;99.90
10788;DHT22;5446;50.826;4.380;2022-08-04T13:43:33;28.00;99.90
10788;DHT22;5446;50.826;4.380;2022-08-04T13:46:05;27.90;99.90
10788;DHT22;5446;50.826;4.380;2022-08-04T13:48:36;27.80;99.90
10788;DHT22;5446;50.826;4.380;2022-08-04T13:51:04;27.80;99.90
10788;DHT22;5446;50.826;4.380;2022-08-04T13:53:35;27.80;99.90
10788;DHT22;5446;50.826;4.380;2022-08-04T13:56:04;27.90;99.90
10788;DHT22;5446;50.826;4.380;2022-08-04T13:58:32;28.00;99.90
10788;DHT22;5446;50.826;4.380;2022-08-04T14:03:37;28.30;99.90
10788;DHT22;5446;50.826;4.380;2022-08-04T14:06:20;28.30;99.90
10788;DHT22;5446;50.826;4.380;2022-08-04T14:11:22;28.50;99.90
10788;DHT22;5446;50.826;4.380;2022-08-04T14:13:48;28.30;99.90
10788;DHT22;5446;50.826;4.380;2022-08-04T14:16:16;28.20;99.90
10788;DHT22;5446;50.826;4.380;2022-08-04T14:18:42;28.10;99.90
10788;DHT22;5446;50.826;4.380;2022-08-04T14:21:10;28.00;99.90
10788;DHT22;5446;50.826;4.380;2022-08-04T14:23:48;28.10;99.90
10788;DHT22;5446;50.826;4.380;2022-08-04T14:26:35;28.50;99.90
10788;DHT22;5446;50.826;4.380;2022-08-04T14:29:12;28.70;99.90
10788;DHT22;5446;50.826;4.380;2022-08-04T14:31:39;28.80;99.90
10788;DHT22;5446;50.826;4.380;2022-08-04T14:34:05;28.90;99.90
10788;DHT22;5446;50.826;4.380;2022-08-04T14:36:39;29.00;99.90
10788;DHT22;5446;50.826;4.380;2022-08-04T14:39:06;29.00;99.90
10788;DHT22;5446;50.826;4.380;2022-08-04T14:41:48;29.00;99.90
10788;DHT22;5446;50.826;4.380;2022-08-04T14:44:14;29.00;99.90
10788;DHT22;5446;50.826;4.380;2022-08-04T14:49:16;28.40;99.90
10788;DHT22;5446;50.826;4.380;2022-08-04T14:51:50;28.70;99.90
10788;DHT22;5446;50.826;4.380;2022-08-04T14:54:25;28.70;99.90
10788;DHT22;5446;50.826;4.380;2022-08-04T14:57:02;28.80;99.90
10788;DHT22;5446;50.826;4.380;2022-08-04T14:59:46;28.90;99.90
10788;DHT22;5446;50.826;4.380;2022-08-04T15:02:13;28.80;99.90
10788;DHT22;5446;50.826;4.380;2022-08-04T15:04:41;28.80;99.90
10788;DHT22;5446;50.826;4.380;2022-08-04T15:07:08;29.00;99.90
10788;DHT22;5446;50.826;4.380;2022-08-04T15:09:35;28.90;99.90
10788;DHT22;5446;50.826;4.380;2022-08-04T15:12:01;29.00;99.90
10788;DHT22;5446;50.826;4.380;2022-08-04T15:14:29;29.00;99.90
10788;DHT22;5446;50.826;4.380;2022-08-04T15:16:56;28.90;99.90
10788;DHT22;5446;50.826;4.380;2022-08-04T15:19:23;29.00;99.90
10788;DHT22;5446;50.826;4.380;2022-08-04T15:21:49;29.40;99.90
10788;DHT22;5446;50.826;4.380;2022-08-04T15:24:15;29.50;99.90
10788;DHT22;5446;50.826;4.380;2022-08-04T15:26:46;29.60;99.90
10788;DHT22;5446;50.826;4.380;2022-08-04T15:29:19;29.70;99.90
10788;DHT22;5446;50.826;4.380;2022-08-04T15:31:49;29.90;99.90
10788;DHT22;5446;50.826;4.380;2022-08-04T15:34:17;29.80;99.90
10788;DHT22;5446;50.826;4.380;2022-08-04T15:36:52;30.30;99.90
10788;DHT22;5446;50.826;4.380;2022-08-04T15:39:43;30.20;99.90
10788;DHT22;5446;50.826;4.380;2022-08-04T15:47:41;30.80;99.90
10788;DHT22;5446;50.826;4.380;2022-08-04T15:50:11;30.90;99.90
10788;DHT22;5446;50.826;4.380;2022-08-04T15:52:59;31.00;99.90
10788;DHT22;5446;50.826;4.380;2022-08-04T15:58:03;31.20;99.90
10788;DHT22;5446;50.826;4.380;2022-08-04T16:09:00;30.70;99.90
10788;DHT22;5446;50.826;4.380;2022-08-04T16:19:09;29.90;99.90
10788;DHT22;5446;50.826;4.380;2022-08-04T16:21:48;29.60;99.90
10788;DHT22;5446;50.826;4.380;2022-08-04T16:24:21;29.40;99.90
10788;DHT22;5446;50.826;4.380;2022-08-04T16:26:59;29.00;99.90
10788;DHT22;5446;50.826;4.380;2022-08-04T16:29:39;28.70;99.90
10788;DHT22;5446;50.826;4.380;2022-08-04T16:34:35;28.60;99.90
10788;DHT22;5446;50.826;4.380;2022-08-04T16:37:03;28.20;99.90
10788;DHT22;5446;50.826;4.380;2022-08-04T16:39:30;27.90;99.90
10788;DHT22;5446;50.826;4.380;2022-08-04T16:41:56;28.00;99.90
10788;DHT22;5446;50.826;4.380;2022-08-04T16:44:34;27.90;99.90
10788;DHT22;5446;50.826;4.380;2022-08-04T16:47:07;28.10;99.90
10788;DHT22;5446;50.826;4.380;2022-08-04T16:49:33;28.60;99.90
10788;DHT22;5446;50.826;4.380;2022-08-04T16:52:06;28.90;99.90
10788;DHT22;5446;50.826;4.380;2022-08-04T16:54:34;29.50;99.90
10788;DHT22;5446;50.826;4.380;2022-08-04T16:57:07;29.70;99.90
10788;DHT22;5446;50.826;4.380;2022-08-04T16:59:33;29.50;99.90
10788;DHT22;5446;50.826;4.380;2022-08-04T17:01:59;29.40;99.90
10788;DHT22;5446;50.826;4.380;2022-08-04T17:04:30;29.90;99.90
10788;DHT22;5446;50.826;4.380;2022-08-04T17:07:04;30.00;99.90
10788;DHT22;5446;50.826;4.380;2022-08-04T17:09:31;30.20;99.90
10788;DHT22;5446;50.826;4.380;2022-08-04T17:11:58;29.50;99.90
10788;DHT22;5446;50.826;4.380;2022-08-04T17:14:29;29.20;99.90
10788;DHT22;5446;50.826;4.380;2022-08-04T17:16:57;28.90;99.90
10788;DHT22;5446;50.826;4.380;2022-08-04T17:19:23;28.50;99.90
10788;DHT22;5446;50.826;4.380;2022-08-04T17:21:50;28.00;99.90
10788;DHT22;5446;50.826;4.380;2022-08-04T17:24:16;27.50;99.90
10788;DHT22;5446;50.826;4.380;2022-08-04T17:26:43;27.30;99.90
10788;DHT22;5446;50.826;4.380;2022-08-04T17:29:09;27.20;99.90
10788;DHT22;5446;50.826;4.380;2022-08-04T17:31:36;27.20;99.90
10788;DHT22;5446;50.826;4.380;2022-08-04T17:34:08;26.70;99.90
10788;DHT22;5446;50.826;4.380;2022-08-04T17:36:36;26.60;99.90
10788;DHT22;5446;50.826;4.380;2022-08-04T17:39:11;26.50;99.90
10788;DHT22;5446;50.826;4.380;2022-08-04T17:41:37;26.50;99.90
10788;DHT22;5446;50.826;4.380;2022-08-04T17:44:04;26.60;99.90
10788;DHT22;5446;50.826;4.380;2022-08-04T17:46:41;26.50;99.90
10788;DHT22;5446;50.826;4.380;2022-08-04T17:49:19;26.30;99.90
10788;DHT22;5446;50.826;4.380;2022-08-04T17:51:53;26.10;99.90
10788;DHT22;5446;50.826;4.380;2022-08-04T17:54:32;26.10;99.90
10788;DHT22;5446;50.826;4.380;2022-08-04T17:57:00;26.20;99.90
10788;DHT22;5446;50.826;4.380;2022-08-04T17:59:28;26.00;99.90
10788;DHT22;5446;50.826;4.380;2022-08-04T18:01:59;25.80;99.90
10788;DHT22;5446;50.826;4.380;2022-08-04T18:09:34;25.30;99.90
10788;DHT22;5446;50.826;4.380;2022-08-04T18:12:05;25.30;99.90
10788;DHT22;5446;50.826;4.380;2022-08-04T18:14:46;25.20;99.90
10788;DHT22;5446;50.826;4.380;2022-08-04T18:17:13;25.10;99.90
10788;DHT22;5446;50.826;4.380;2022-08-04T18:19:51;25.10;99.90
10788;DHT22;5446;50.826;4.380;2022-08-04T18:22:17;25.10;99.90
10788;DHT22;5446;50.826;4.380;2022-08-04T18:24:43;25.10;99.90
10788;DHT22;5446;50.826;4.380;2022-08-04T18:27:09;24.90;99.90
10788;DHT22;5446;50.826;4.380;2022-08-04T18:29:35;24.80;99.90
10788;DHT22;5446;50.826;4.380;2022-08-04T18:32:01;24.80;99.90
10788;DHT22;5446;50.826;4.380;2022-08-04T18:34:27;24.80;99.90
10788;DHT22;5446;50.826;4.380;2022-08-04T18:36:52;24.40;99.90
10788;DHT22;5446;50.826;4.380;2022-08-04T18:39:19;24.30;99.90
10788;DHT22;5446;50.826;4.380;2022-08-04T18:41:48;24.30;99.90
10788;DHT22;5446;50.826;4.380;2022-08-04T18:44:14;24.30;99.90
10788;DHT22;5446;50.826;4.380;2022-08-04T18:46:40;24.10;99.90
10788;DHT22;5446;50.826;4.380;2022-08-04T18:49:06;24.10;99.90
10788;DHT22;5446;50.826;4.380;2022-08-04T18:51:32;24.00;99.90
10788;DHT22;5446;50.826;4.380;2022-08-04T18:53:57;23.90;99.90
10788;DHT22;5446;50.826;4.380;2022-08-04T18:56:23;23.80;99.90
10788;DHT22;5446;50.826;4.380;2022-08-04T18:58:49;23.80;99.90
10788;DHT22;5446;50.826;4.380;2022-08-04T19:01:14;23.70;99.90
10788;DHT22;5446;50.826;4.380;2022-08-04T19:03:40;23.70;99.90
10788;DHT22;5446;50.826;4.380;2022-08-04T19:06:06;23.70;99.90
10788;DHT22;5446;50.826;4.380;2022-08-04T19:08:32;23.60;99.90
10788;DHT22;5446;50.826;4.380;2022-08-04T19:10:58;23.40;99.90
10788;DHT22;5446;50.826;4.380;2022-08-04T19:13:25;23.20;99.90
10788;DHT22;5446;50.826;4.380;2022-08-04T19:15:52;23.10;99.90
10788;DHT22;5446;50.826;4.380;2022-08-04T19:18:18;22.70;99.90
10788;DHT22;5446;50.826;4.380;2022-08-04T19:20:43;22.50;99.90
10788;DHT22;5446;50.826;4.380;2022-08-04T19:23:11;22.30;99.90
10788;DHT22;5446;50.826;4.380;2022-08-04T19:25:37;22.20;99.90
10788;DHT22;5446;50.826;4.380;2022-08-04T19:28:04;22.20;99.90
10788;DHT22;5446;50.826;4.380;2022-08-04T19:30:30;22.20;99.90
10788;DHT22;5446;50.826;4.380;2022-08-04T19:32:55;22.20;99.90
10788;DHT22;5446;50.826;4.380;2022-08-04T19:35:21;22.10;99.90
10788;DHT22;5446;50.826;4.380;2022-08-04T19:37:47;22.00;99.90
10788;DHT22;5446;50.826;4.380;2022-08-04T19:40:12;22.00;99.90
10788;DHT22;5446;50.826;4.380;2022-08-04T19:42:39;21.90;99.90
10788;DHT22;5446;50.826;4.380;2022-08-04T19:45:08;21.80;99.90
10788;DHT22;5446;50.826;4.380;2022-08-04T19:47:34;21.70;99.90
10788;DHT22;5446;50.826;4.380;2022-08-04T19:52:33;21.40;99.90
10788;DHT22;5446;50.826;4.380;2022-08-04T19:54:58;21.30;99.90
10788;DHT22;5446;50.826;4.380;2022-08-04T19:57:24;21.30;99.90
10788;DHT22;5446;50.826;4.380;2022-08-04T19:59:49;21.20;99.90
10788;DHT22;5446;50.826;4.380;2022-08-04T20:02:15;21.20;99.90
10788;DHT22;5446;50.826;4.380;2022-08-04T20:04:41;21.10;99.90
10788;DHT22;5446;50.826;4.380;2022-08-04T20:07:07;21.00;99.90
10788;DHT22;5446;50.826;4.380;2022-08-04T20:09:32;21.00;99.90
10788;DHT22;5446;50.826;4.380;2022-08-04T20:11:58;21.00;99.90
10788;DHT22;5446;50.826;4.380;2022-08-04T20:14:25;21.00;99.90
10788;DHT22;5446;50.826;4.380;2022-08-04T20:16:52;20.90;99.90
10788;DHT22;5446;50.826;4.380;2022-08-04T20:19:18;20.80;99.90
10788;DHT22;5446;50.826;4.380;2022-08-04T20:21:44;20.70;99.90
10788;DHT22;5446;50.826;4.380;2022-08-04T20:24:09;20.70;99.90
10788;DHT22;5446;50.826;4.380;2022-08-04T20:26:35;20.60;99.90
10788;DHT22;5446;50.826;4.380;2022-08-04T20:29:01;20.60;99.90
10788;DHT22;5446;50.826;4.380;2022-08-04T20:31:27;20.50;99.90
10788;DHT22;5446;50.826;4.380;2022-08-04T20:33:53;20.40;99.90
10788;DHT22;5446;50.826;4.380;2022-08-04T20:36:19;20.40;99.90
10788;DHT22;5446;50.826;4.380;2022-08-04T20:38:44;20.40;99.90
10788;DHT22;5446;50.826;4.380;2022-08-04T20:41:10;20.40;99.90
10788;DHT22;5446;50.826;4.380;2022-08-04T20:43:36;20.50;99.90
10788;DHT22;5446;50.826;4.380;2022-08-04T20:46:01;20.50;99.90
10788;DHT22;5446;50.826;4.380;2022-08-04T20:48:28;20.60;99.90
10788;DHT22;5446;50.826;4.380;2022-08-04T20:50:54;20.50;99.90
10788;DHT22;5446;50.826;4.380;2022-08-04T20:53:20;20.50;99.90
10788;DHT22;5446;50.826;4.380;2022-08-04T20:55:45;20.40;99.90
10788;DHT22;5446;50.826;4.380;2022-08-04T20:58:11;20.50;99.90
10788;DHT22;5446;50.826;4.380;2022-08-04T21:00:37;20.50;99.90
10788;DHT22;5446;50.826;4.380;2022-08-04T21:03:02;20.50;99.90
10788;DHT22;5446;50.826;4.380;2022-08-04T21:05:28;20.50;99.90
10788;DHT22;5446;50.826;4.380;2022-08-04T21:07:55;20.60;99.90
10788;DHT22;5446;50.826;4.380;2022-08-04T21:10:24;20.60;99.90
10788;DHT22;5446;50.826;4.380;2022-08-04T21:12:50;20.60;99.90